Aérodrome :
LOGIN :

S'inscrire | Disclaimer

   EN    FR    IT 

 










Légende :    VFR   VFR Marginal   IFR   IFR Intensif   IFR Très Intensif
Visi : 
Plafond : 
>= 8 km
>= 3000ft
5 à 8 km
1000 à 3000 ft
1500m à 5 km
500 à 1000 ft
800 à 1500m
200 à 500 ft
< 800m
< 200 ft
Symboles :   Orages  Brouillard  Fortes neiges  Fortes précipitations  Vent > 20 kt
SIGMETs :   Divers  Orages  Givrage  Turbulence  Onde Orograph.  Cendres Volcan.






- Altitude de l'aérodrome : 194 ft


EBCV - Chièvres

DERNIER METAR :
  • 192125Z AUTO 32010KT 2600 -RA BKN003/// OVC017/// 17/16 Q1008 YLO

METARs EXPIRÉS :
  • 192055Z AUTO 28008KT 1100 +RA OVC004/// 17/17 Q1009 AMB
  • 192052Z AUTO 27008KT 1000 +RA BKN005/// BKN050/// OVC077/// 17/17 Q1010 AMB
  • 192035Z AUTO 30006KT 1200 +RA FEW009/// SCT050/// OVC086/// 17/17 Q1009 AMB
  • 192010Z AUTO 04005KT 3100 +RA FEW044/// SCT056/// OVC086/// 18/17 Q1008 YLO
  • 191955Z AUTO 02009KT 5000 RA SCT044/// BKN081/// OVC120/// 18/17 Q1008 WHT
  • 191949Z AUTO 05008KT 3800 +RA BKN045/// BKN088/// OVC100/// 18/17 Q1008 GRN
  • 191925Z AUTO 03008KT 9000 -RA OVC067/// 19/16 Q1009 BLU

TAF TAF EBCV
Valide du 19 à 19h jusqu'au 20 à 07h UTC


191541Z 1919/2007 03007KT 9999 BKN050
TEMPO 1919/1924 03010G20KT 7000 -SHRA BKN023
TEMPO 1920/1923 03012G25KT 4000 SHRA BKN020TCU
PROB40
TEMPO 1920/1923 VRB15G35KT 2000 TSRAGR BKN013CB
BECMG 2000/2002 20005KT 6000 BKN011
TEMPO 2000/2003 3000 -DZBR SCT008 OVC010
BECMG 2005/2007 20010KT 8000 BKN006 BY EBWM



MET'MAP, la Météo Aéronautique d'un coup d'oeil ! - Copyright ORBIFLY Décembre 2007 - Disclaimer

ORBIFLY MET'MAP TEAM :

Programmation & Développement : Alexandra Zaïnal
Sur une idée originale de : Baudouin d'Aumeries
Assistance à la programmation : Marc-Olivier Méhu
Soutien technique & logistique : Manuel Goepfert

Contact : metmap@orbifly.com




SOURCES & CREDITS :

   NOAA